sensor_id;sensor_type;location;lat;lon;timestamp;P1;durP1;ratioP1;P2;durP2;ratioP2
20890;SDS011;10605;52.968;8.844;2022-10-26T00:00:36;8.00;;;7.00;;
20890;SDS011;10605;52.968;8.844;2022-10-26T00:03:27;10.93;;;8.82;;
20890;SDS011;10605;52.968;8.844;2022-10-26T00:05:55;9.25;;;8.27;;
20890;SDS011;10605;52.968;8.844;2022-10-26T00:08:44;12.02;;;9.00;;
20890;SDS011;10605;52.968;8.844;2022-10-26T00:14:40;19.27;;;11.27;;
20890;SDS011;10605;52.968;8.844;2022-10-26T00:17:05;24.50;;;12.05;;
20890;SDS011;10605;52.968;8.844;2022-10-26T00:19:59;20.58;;;11.90;;
20890;SDS011;10605;52.968;8.844;2022-10-26T00:22:32;14.38;;;11.70;;
20890;SDS011;10605;52.968;8.844;2022-10-26T00:24:58;14.65;;;10.10;;
20890;SDS011;10605;52.968;8.844;2022-10-26T00:27:41;15.00;;;9.45;;
20890;SDS011;10605;52.968;8.844;2022-10-26T00:30:24;12.00;;;10.05;;
20890;SDS011;10605;52.968;8.844;2022-10-26T00:32:50;17.52;;;9.68;;
20890;SDS011;10605;52.968;8.844;2022-10-26T00:35:28;17.75;;;11.25;;
20890;SDS011;10605;52.968;8.844;2022-10-26T00:38:02;20.05;;;12.05;;
20890;SDS011;10605;52.968;8.844;2022-10-26T00:40:33;20.38;;;11.70;;
20890;SDS011;10605;52.968;8.844;2022-10-26T00:45:51;16.65;;;11.73;;
20890;SDS011;10605;52.968;8.844;2022-10-26T00:48:45;10.45;;;8.85;;
20890;SDS011;10605;52.968;8.844;2022-10-26T00:51:26;10.02;;;8.15;;
20890;SDS011;10605;52.968;8.844;2022-10-26T00:54:06;16.70;;;9.82;;
20890;SDS011;10605;52.968;8.844;2022-10-26T00:56:38;10.18;;;8.68;;
20890;SDS011;10605;52.968;8.844;2022-10-26T00:59:08;12.27;;;10.20;;
20890;SDS011;10605;52.968;8.844;2022-10-26T01:01:44;16.55;;;10.65;;
20890;SDS011;10605;52.968;8.844;2022-10-26T01:04:22;24.20;;;11.98;;
20890;SDS011;10605;52.968;8.844;2022-10-26T01:06:52;27.60;;;13.70;;
20890;SDS011;10605;52.968;8.844;2022-10-26T01:09:19;26.20;;;12.30;;
20890;SDS011;10605;52.968;8.844;2022-10-26T01:11:45;31.45;;;13.40;;
20890;SDS011;10605;52.968;8.844;2022-10-26T01:14:14;21.48;;;12.30;;
20890;SDS011;10605;52.968;8.844;2022-10-26T01:22:44;19.50;;;12.15;;
20890;SDS011;10605;52.968;8.844;2022-10-26T01:30:52;27.60;;;15.98;;
20890;SDS011;10605;52.968;8.844;2022-10-26T01:33:32;100.95;;;17.80;;
20890;SDS011;10605;52.968;8.844;2022-10-26T01:36:08;36.85;;;18.30;;
20890;SDS011;10605;52.968;8.844;2022-10-26T01:41:47;47.28;;;20.65;;
20890;SDS011;10605;52.968;8.844;2022-10-26T01:46:50;65.68;;;21.08;;
20890;SDS011;10605;52.968;8.844;2022-10-26T01:49:23;65.75;;;23.85;;
20890;SDS011;10605;52.968;8.844;2022-10-26T01:52:27;73.05;;;22.40;;
20890;SDS011;10605;52.968;8.844;2022-10-26T02:16:18;169.18;;;25.50;;
20890;SDS011;10605;52.968;8.844;2022-10-26T02:19:09;141.68;;;24.25;;
20890;SDS011;10605;52.968;8.844;2022-10-26T02:22:01;219.88;;;24.88;;
20890;SDS011;10605;52.968;8.844;2022-10-26T02:27:46;70.80;;;23.92;;
20890;SDS011;10605;52.968;8.844;2022-10-26T02:30:18;346.00;;;28.25;;
20890;SDS011;10605;52.968;8.844;2022-10-26T02:32:45;293.02;;;30.55;;
20890;SDS011;10605;52.968;8.844;2022-10-26T02:35:17;131.80;;;29.30;;
20890;SDS011;10605;52.968;8.844;2022-10-26T02:38:26;133.77;;;33.72;;
20890;SDS011;10605;52.968;8.844;2022-10-26T02:41:14;177.95;;;33.10;;
20890;SDS011;10605;52.968;8.844;2022-10-26T02:50:39;115.95;;;31.92;;
20890;SDS011;10605;52.968;8.844;2022-10-26T02:55:42;152.73;;;29.00;;
20890;SDS011;10605;52.968;8.844;2022-10-26T02:58:31;124.10;;;27.55;;
20890;SDS011;10605;52.968;8.844;2022-10-26T03:01:09;77.32;;;26.77;;
20890;SDS011;10605;52.968;8.844;2022-10-26T03:03:37;62.83;;;26.83;;
20890;SDS011;10605;52.968;8.844;2022-10-26T03:06:08;81.20;;;25.88;;
20890;SDS011;10605;52.968;8.844;2022-10-26T03:08:39;140.88;;;26.95;;
20890;SDS011;10605;52.968;8.844;2022-10-26T03:11:05;67.47;;;24.58;;
20890;SDS011;10605;52.968;8.844;2022-10-26T03:13:35;52.78;;;24.83;;
20890;SDS011;10605;52.968;8.844;2022-10-26T03:16:03;170.65;;;27.10;;
20890;SDS011;10605;52.968;8.844;2022-10-26T03:18:29;63.75;;;25.02;;
20890;SDS011;10605;52.968;8.844;2022-10-26T03:20:57;82.00;;;26.98;;
20890;SDS011;10605;52.968;8.844;2022-10-26T03:23:28;56.35;;;24.73;;
20890;SDS011;10605;52.968;8.844;2022-10-26T03:25:59;58.90;;;25.98;;
20890;SDS011;10605;52.968;8.844;2022-10-26T03:28:25;61.90;;;25.90;;
20890;SDS011;10605;52.968;8.844;2022-10-26T03:30:58;66.50;;;25.38;;
20890;SDS011;10605;52.968;8.844;2022-10-26T03:33:48;76.18;;;26.77;;
20890;SDS011;10605;52.968;8.844;2022-10-26T03:36:15;59.97;;;25.95;;
20890;SDS011;10605;52.968;8.844;2022-10-26T03:38:44;83.35;;;25.60;;
20890;SDS011;10605;52.968;8.844;2022-10-26T03:41:18;65.78;;;24.88;;
20890;SDS011;10605;52.968;8.844;2022-10-26T03:44:11;69.07;;;25.73;;
20890;SDS011;10605;52.968;8.844;2022-10-26T03:46:47;91.22;;;24.63;;
20890;SDS011;10605;52.968;8.844;2022-10-26T03:49:33;143.82;;;25.40;;
20890;SDS011;10605;52.968;8.844;2022-10-26T03:52:09;51.20;;;23.77;;
20890;SDS011;10605;52.968;8.844;2022-10-26T03:55:02;76.47;;;25.27;;
20890;SDS011;10605;52.968;8.844;2022-10-26T03:57:33;121.75;;;23.23;;
20890;SDS011;10605;52.968;8.844;2022-10-26T04:00:04;57.22;;;21.77;;
20890;SDS011;10605;52.968;8.844;2022-10-26T04:02:33;51.55;;;22.58;;
20890;SDS011;10605;52.968;8.844;2022-10-26T04:05:01;60.17;;;22.27;;
20890;SDS011;10605;52.968;8.844;2022-10-26T04:07:26;81.88;;;23.20;;
20890;SDS011;10605;52.968;8.844;2022-10-26T04:09:55;57.00;;;22.98;;
20890;SDS011;10605;52.968;8.844;2022-10-26T04:12:23;57.15;;;23.08;;
20890;SDS011;10605;52.968;8.844;2022-10-26T04:15:11;88.85;;;23.02;;
20890;SDS011;10605;52.968;8.844;2022-10-26T04:17:58;100.82;;;22.55;;
20890;SDS011;10605;52.968;8.844;2022-10-26T04:20:31;103.10;;;22.80;;
20890;SDS011;10605;52.968;8.844;2022-10-26T04:23:05;45.80;;;22.75;;
20890;SDS011;10605;52.968;8.844;2022-10-26T04:25:43;64.63;;;22.23;;
20890;SDS011;10605;52.968;8.844;2022-10-26T04:28:19;61.95;;;20.65;;
20890;SDS011;10605;52.968;8.844;2022-10-26T04:34:17;186.98;;;23.95;;
20890;SDS011;10605;52.968;8.844;2022-10-26T04:36:42;125.18;;;23.38;;
20890;SDS011;10605;52.968;8.844;2022-10-26T04:39:13;94.25;;;23.33;;
20890;SDS011;10605;52.968;8.844;2022-10-26T04:41:44;194.93;;;25.35;;
20890;SDS011;10605;52.968;8.844;2022-10-26T04:44:14;148.82;;;23.20;;
20890;SDS011;10605;52.968;8.844;2022-10-26T04:46:43;169.65;;;22.35;;
20890;SDS011;10605;52.968;8.844;2022-10-26T04:49:41;209.98;;;23.98;;
20890;SDS011;10605;52.968;8.844;2022-10-26T04:52:07;68.43;;;21.48;;
20890;SDS011;10605;52.968;8.844;2022-10-26T04:54:35;104.70;;;21.05;;
20890;SDS011;10605;52.968;8.844;2022-10-26T04:57:23;180.75;;;23.38;;
20890;SDS011;10605;52.968;8.844;2022-10-26T05:02:59;142.63;;;21.52;;
20890;SDS011;10605;52.968;8.844;2022-10-26T05:05:38;42.95;;;20.83;;
20890;SDS011;10605;52.968;8.844;2022-10-26T05:08:04;58.03;;;21.52;;
20890;SDS011;10605;52.968;8.844;2022-10-26T05:11:20;194.55;;;23.90;;
20890;SDS011;10605;52.968;8.844;2022-10-26T05:13:48;474.88;;;29.40;;
20890;SDS011;10605;52.968;8.844;2022-10-26T05:19:54;190.32;;;22.60;;
20890;SDS011;10605;52.968;8.844;2022-10-26T05:22:24;102.20;;;19.35;;
20890;SDS011;10605;52.968;8.844;2022-10-26T05:25:10;37.72;;;18.67;;
20890;SDS011;10605;52.968;8.844;2022-10-26T05:27:40;49.40;;;20.75;;
20890;SDS011;10605;52.968;8.844;2022-10-26T05:30:06;45.17;;;20.45;;
20890;SDS011;10605;52.968;8.844;2022-10-26T05:33:03;47.42;;;21.27;;
20890;SDS011;10605;52.968;8.844;2022-10-26T05:35:34;56.55;;;23.52;;
20890;SDS011;10605;52.968;8.844;2022-10-26T05:41:00;49.10;;;22.45;;
20890;SDS011;10605;52.968;8.844;2022-10-26T05:43:51;60.65;;;24.17;;
20890;SDS011;10605;52.968;8.844;2022-10-26T05:46:19;53.22;;;22.23;;
20890;SDS011;10605;52.968;8.844;2022-10-26T05:49:14;56.88;;;23.42;;
20890;SDS011;10605;52.968;8.844;2022-10-26T05:51:54;53.95;;;22.55;;
20890;SDS011;10605;52.968;8.844;2022-10-26T05:54:58;61.65;;;22.55;;
20890;SDS011;10605;52.968;8.844;2022-10-26T05:57:34;62.97;;;23.70;;
20890;SDS011;10605;52.968;8.844;2022-10-26T06:44:45;64.15;;;23.60;;
20890;SDS011;10605;52.968;8.844;2022-10-26T06:57:36;63.90;;;24.60;;
20890;SDS011;10605;52.968;8.844;2022-10-26T07:00:41;55.85;;;24.50;;
20890;SDS011;10605;52.968;8.844;2022-10-26T07:17:25;26.73;;;16.58;;
20890;SDS011;10605;52.968;8.844;2022-10-26T07:30:39;25.20;;;14.95;;
20890;SDS011;10605;52.968;8.844;2022-10-26T07:33:09;19.52;;;13.93;;
20890;SDS011;10605;52.968;8.844;2022-10-26T07:35:36;22.25;;;15.38;;
20890;SDS011;10605;52.968;8.844;2022-10-26T07:38:08;22.50;;;14.70;;
20890;SDS011;10605;52.968;8.844;2022-10-26T07:47:35;20.90;;;12.90;;
20890;SDS011;10605;52.968;8.844;2022-10-26T07:50:31;23.65;;;13.45;;
20890;SDS011;10605;52.968;8.844;2022-10-26T07:53:30;18.80;;;13.00;;
20890;SDS011;10605;52.968;8.844;2022-10-26T07:56:40;19.33;;;13.15;;
20890;SDS011;10605;52.968;8.844;2022-10-26T08:03:40;23.27;;;12.68;;
20890;SDS011;10605;52.968;8.844;2022-10-26T08:06:48;17.38;;;13.05;;
20890;SDS011;10605;52.968;8.844;2022-10-26T08:09:44;16.90;;;13.10;;
20890;SDS011;10605;52.968;8.844;2022-10-26T08:12:11;15.70;;;12.73;;
20890;SDS011;10605;52.968;8.844;2022-10-26T08:15:26;15.25;;;12.23;;
20890;SDS011;10605;52.968;8.844;2022-10-26T08:21:30;12.73;;;11.30;;
20890;SDS011;10605;52.968;8.844;2022-10-26T08:28:30;12.85;;;11.43;;
20890;SDS011;10605;52.968;8.844;2022-10-26T08:38:06;12.20;;;9.90;;
20890;SDS011;10605;52.968;8.844;2022-10-26T08:41:07;11.07;;;9.77;;
20890;SDS011;10605;52.968;8.844;2022-10-26T08:54:27;11.05;;;8.93;;
20890;SDS011;10605;52.968;8.844;2022-10-26T09:01:22;9.85;;;8.75;;
20890;SDS011;10605;52.968;8.844;2022-10-26T09:04:48;9.00;;;8.20;;
20890;SDS011;10605;52.968;8.844;2022-10-26T09:24:41;9.27;;;5.35;;
20890;SDS011;10605;52.968;8.844;2022-10-26T09:28:17;6.00;;;5.50;;
20890;SDS011;10605;52.968;8.844;2022-10-26T09:31:59;7.30;;;5.90;;
20890;SDS011;10605;52.968;8.844;2022-10-26T09:35:25;6.15;;;5.55;;
20890;SDS011;10605;52.968;8.844;2022-10-26T09:42:20;7.82;;;5.47;;
20890;SDS011;10605;52.968;8.844;2022-10-26T10:19:22;10.05;;;4.75;;
20890;SDS011;10605;52.968;8.844;2022-10-26T10:36:57;7.57;;;5.20;;
20890;SDS011;10605;52.968;8.844;2022-10-26T10:43:27;9.88;;;5.00;;
20890;SDS011;10605;52.968;8.844;2022-10-26T11:10:38;7.72;;;4.30;;
20890;SDS011;10605;52.968;8.844;2022-10-26T11:21:29;6.50;;;4.43;;
20890;SDS011;10605;52.968;8.844;2022-10-26T11:42:08;4.93;;;4.05;;
20890;SDS011;10605;52.968;8.844;2022-10-26T11:55:35;4.18;;;3.63;;
20890;SDS011;10605;52.968;8.844;2022-10-26T11:59:03;6.30;;;4.13;;
20890;SDS011;10605;52.968;8.844;2022-10-26T12:09:12;4.57;;;3.00;;
20890;SDS011;10605;52.968;8.844;2022-10-26T12:17:34;3.88;;;2.75;;
20890;SDS011;10605;52.968;8.844;2022-10-26T12:23:23;8.65;;;3.03;;
20890;SDS011;10605;52.968;8.844;2022-10-26T14:01:23;3.88;;;2.67;;
20890;SDS011;10605;52.968;8.844;2022-10-26T15:32:35;6.13;;;3.40;;
20890;SDS011;10605;52.968;8.844;2022-10-26T16:17:05;8.70;;;3.60;;
20890;SDS011;10605;52.968;8.844;2022-10-26T16:44:05;7.72;;;3.55;;
20890;SDS011;10605;52.968;8.844;2022-10-26T16:50:38;5.82;;;4.13;;
20890;SDS011;10605;52.968;8.844;2022-10-26T17:04:19;5.80;;;4.20;;
20890;SDS011;10605;52.968;8.844;2022-10-26T17:31:24;6.18;;;4.45;;
20890;SDS011;10605;52.968;8.844;2022-10-26T18:01:48;15.20;;;6.70;;
20890;SDS011;10605;52.968;8.844;2022-10-26T18:32:21;11.50;;;9.80;;
20890;SDS011;10605;52.968;8.844;2022-10-26T18:34:47;11.15;;;9.98;;
20890;SDS011;10605;52.968;8.844;2022-10-26T18:37:21;18.92;;;9.95;;
20890;SDS011;10605;52.968;8.844;2022-10-26T18:39:50;17.30;;;9.15;;
20890;SDS011;10605;52.968;8.844;2022-10-26T18:42:18;15.95;;;9.50;;
20890;SDS011;10605;52.968;8.844;2022-10-26T18:44:44;16.95;;;9.80;;
20890;SDS011;10605;52.968;8.844;2022-10-26T18:47:12;15.70;;;9.50;;
20890;SDS011;10605;52.968;8.844;2022-10-26T18:49:40;19.90;;;10.50;;
20890;SDS011;10605;52.968;8.844;2022-10-26T18:52:09;14.25;;;10.50;;
20890;SDS011;10605;52.968;8.844;2022-10-26T18:54:37;16.13;;;10.73;;
20890;SDS011;10605;52.968;8.844;2022-10-26T18:57:06;22.58;;;10.70;;
20890;SDS011;10605;52.968;8.844;2022-10-26T18:59:34;16.98;;;10.63;;
20890;SDS011;10605;52.968;8.844;2022-10-26T19:02:01;22.67;;;11.13;;
20890;SDS011;10605;52.968;8.844;2022-10-26T19:04:32;19.65;;;10.88;;
20890;SDS011;10605;52.968;8.844;2022-10-26T19:07:02;20.30;;;9.98;;
20890;SDS011;10605;52.968;8.844;2022-10-26T19:09:29;24.40;;;11.02;;
20890;SDS011;10605;52.968;8.844;2022-10-26T19:11:55;22.00;;;11.45;;
20890;SDS011;10605;52.968;8.844;2022-10-26T19:14:26;18.35;;;10.77;;
20890;SDS011;10605;52.968;8.844;2022-10-26T19:17:01;31.67;;;11.63;;
20890;SDS011;10605;52.968;8.844;2022-10-26T19:19:34;15.25;;;11.00;;
20890;SDS011;10605;52.968;8.844;2022-10-26T19:22:01;23.58;;;11.07;;
20890;SDS011;10605;52.968;8.844;2022-10-26T19:24:27;21.02;;;10.63;;
20890;SDS011;10605;52.968;8.844;2022-10-26T19:26:54;16.77;;;10.20;;
20890;SDS011;10605;52.968;8.844;2022-10-26T19:29:23;12.82;;;9.45;;
20890;SDS011;10605;52.968;8.844;2022-10-26T19:32:02;14.63;;;10.48;;
20890;SDS011;10605;52.968;8.844;2022-10-26T19:34:31;18.98;;;10.80;;
20890;SDS011;10605;52.968;8.844;2022-10-26T19:37:00;16.05;;;10.63;;
20890;SDS011;10605;52.968;8.844;2022-10-26T19:39:29;18.60;;;11.38;;
20890;SDS011;10605;52.968;8.844;2022-10-26T19:41:55;19.95;;;12.82;;
20890;SDS011;10605;52.968;8.844;2022-10-26T19:44:20;25.40;;;12.98;;
20890;SDS011;10605;52.968;8.844;2022-10-26T19:46:47;28.60;;;13.80;;
20890;SDS011;10605;52.968;8.844;2022-10-26T19:49:12;22.42;;;14.00;;
20890;SDS011;10605;52.968;8.844;2022-10-26T19:51:42;24.05;;;14.60;;
20890;SDS011;10605;52.968;8.844;2022-10-26T19:54:08;24.60;;;14.60;;
20890;SDS011;10605;52.968;8.844;2022-10-26T19:56:34;22.05;;;14.32;;
20890;SDS011;10605;52.968;8.844;2022-10-26T19:59:00;25.00;;;15.10;;
20890;SDS011;10605;52.968;8.844;2022-10-26T20:01:29;22.75;;;15.00;;
20890;SDS011;10605;52.968;8.844;2022-10-26T20:03:54;24.83;;;15.30;;
20890;SDS011;10605;52.968;8.844;2022-10-26T20:06:21;25.60;;;16.13;;
20890;SDS011;10605;52.968;8.844;2022-10-26T20:08:47;26.65;;;14.55;;
20890;SDS011;10605;52.968;8.844;2022-10-26T20:11:13;26.70;;;16.67;;
20890;SDS011;10605;52.968;8.844;2022-10-26T20:13:41;25.58;;;14.00;;
20890;SDS011;10605;52.968;8.844;2022-10-26T20:16:08;22.02;;;15.18;;
20890;SDS011;10605;52.968;8.844;2022-10-26T20:18:34;24.60;;;15.63;;
20890;SDS011;10605;52.968;8.844;2022-10-26T20:21:09;20.88;;;13.90;;
20890;SDS011;10605;52.968;8.844;2022-10-26T20:23:37;23.77;;;15.15;;
20890;SDS011;10605;52.968;8.844;2022-10-26T20:26:03;16.52;;;14.55;;
20890;SDS011;10605;52.968;8.844;2022-10-26T20:28:29;20.98;;;14.48;;
20890;SDS011;10605;52.968;8.844;2022-10-26T20:30:55;18.38;;;13.93;;
20890;SDS011;10605;52.968;8.844;2022-10-26T20:33:23;28.60;;;14.30;;
20890;SDS011;10605;52.968;8.844;2022-10-26T20:35:54;23.70;;;15.65;;
20890;SDS011;10605;52.968;8.844;2022-10-26T20:38:21;20.38;;;15.52;;
20890;SDS011;10605;52.968;8.844;2022-10-26T20:40:49;30.23;;;15.07;;
20890;SDS011;10605;52.968;8.844;2022-10-26T20:43:21;19.95;;;14.68;;
20890;SDS011;10605;52.968;8.844;2022-10-26T20:45:48;16.67;;;13.27;;
20890;SDS011;10605;52.968;8.844;2022-10-26T20:48:16;23.38;;;13.63;;
20890;SDS011;10605;52.968;8.844;2022-10-26T20:50:45;23.90;;;13.77;;
20890;SDS011;10605;52.968;8.844;2022-10-26T20:55:58;20.98;;;13.80;;
20890;SDS011;10605;52.968;8.844;2022-10-26T20:58:42;25.60;;;15.10;;
20890;SDS011;10605;52.968;8.844;2022-10-26T21:01:19;17.50;;;14.02;;
20890;SDS011;10605;52.968;8.844;2022-10-26T21:03:48;19.55;;;14.40;;
20890;SDS011;10605;52.968;8.844;2022-10-26T21:06:14;24.67;;;15.80;;
20890;SDS011;10605;52.968;8.844;2022-10-26T21:08:40;28.27;;;16.33;;
20890;SDS011;10605;52.968;8.844;2022-10-26T21:11:05;20.65;;;15.55;;
20890;SDS011;10605;52.968;8.844;2022-10-26T21:13:31;25.55;;;15.95;;
20890;SDS011;10605;52.968;8.844;2022-10-26T21:15:57;34.78;;;17.30;;
20890;SDS011;10605;52.968;8.844;2022-10-26T21:18:26;26.33;;;18.38;;
20890;SDS011;10605;52.968;8.844;2022-10-26T21:20:55;28.95;;;18.40;;
20890;SDS011;10605;52.968;8.844;2022-10-26T21:23:22;28.73;;;18.75;;
20890;SDS011;10605;52.968;8.844;2022-10-26T21:25:48;36.80;;;20.15;;
20890;SDS011;10605;52.968;8.844;2022-10-26T21:28:13;36.00;;;20.42;;
20890;SDS011;10605;52.968;8.844;2022-10-26T21:30:39;36.63;;;20.90;;
20890;SDS011;10605;52.968;8.844;2022-10-26T21:33:05;35.22;;;21.27;;
20890;SDS011;10605;52.968;8.844;2022-10-26T21:35:33;28.13;;;19.85;;
20890;SDS011;10605;52.968;8.844;2022-10-26T21:37:59;30.88;;;20.35;;
20890;SDS011;10605;52.968;8.844;2022-10-26T21:40:25;37.00;;;20.73;;
20890;SDS011;10605;52.968;8.844;2022-10-26T21:42:50;30.88;;;19.13;;
20890;SDS011;10605;52.968;8.844;2022-10-26T21:45:16;29.63;;;20.85;;
20890;SDS011;10605;52.968;8.844;2022-10-26T21:47:42;29.83;;;19.50;;
20890;SDS011;10605;52.968;8.844;2022-10-26T21:50:11;32.85;;;19.45;;
20890;SDS011;10605;52.968;8.844;2022-10-26T21:52:36;34.67;;;19.85;;
20890;SDS011;10605;52.968;8.844;2022-10-26T21:55:02;35.58;;;20.50;;
20890;SDS011;10605;52.968;8.844;2022-10-26T21:57:28;39.90;;;20.98;;
20890;SDS011;10605;52.968;8.844;2022-10-26T21:59:54;38.33;;;21.00;;
20890;SDS011;10605;52.968;8.844;2022-10-26T22:02:19;26.75;;;21.17;;
20890;SDS011;10605;52.968;8.844;2022-10-26T22:04:45;33.30;;;20.65;;
20890;SDS011;10605;52.968;8.844;2022-10-26T22:07:10;36.05;;;20.95;;
20890;SDS011;10605;52.968;8.844;2022-10-26T22:09:36;32.70;;;20.90;;
20890;SDS011;10605;52.968;8.844;2022-10-26T22:12:02;30.65;;;20.80;;
20890;SDS011;10605;52.968;8.844;2022-10-26T22:14:28;28.75;;;19.52;;
20890;SDS011;10605;52.968;8.844;2022-10-26T22:16:53;35.13;;;20.58;;
20890;SDS011;10605;52.968;8.844;2022-10-26T22:19:19;31.67;;;21.38;;
20890;SDS011;10605;52.968;8.844;2022-10-26T22:21:44;32.95;;;21.02;;
20890;SDS011;10605;52.968;8.844;2022-10-26T22:24:10;22.20;;;18.08;;
20890;SDS011;10605;52.968;8.844;2022-10-26T22:26:36;28.20;;;19.10;;
20890;SDS011;10605;52.968;8.844;2022-10-26T22:29:02;27.10;;;18.45;;
20890;SDS011;10605;52.968;8.844;2022-10-26T22:31:29;32.33;;;19.27;;
20890;SDS011;10605;52.968;8.844;2022-10-26T22:34:00;31.23;;;18.70;;
20890;SDS011;10605;52.968;8.844;2022-10-26T22:36:28;23.52;;;18.00;;
20890;SDS011;10605;52.968;8.844;2022-10-26T22:38:54;28.55;;;18.70;;
20890;SDS011;10605;52.968;8.844;2022-10-26T22:41:20;27.55;;;18.52;;
20890;SDS011;10605;52.968;8.844;2022-10-26T22:43:46;26.35;;;17.45;;
20890;SDS011;10605;52.968;8.844;2022-10-26T22:46:17;36.05;;;20.33;;
20890;SDS011;10605;52.968;8.844;2022-10-26T22:48:44;31.88;;;19.95;;
20890;SDS011;10605;52.968;8.844;2022-10-26T22:51:11;41.63;;;19.88;;
20890;SDS011;10605;52.968;8.844;2022-10-26T22:53:42;30.02;;;20.50;;
20890;SDS011;10605;52.968;8.844;2022-10-26T22:56:09;26.52;;;19.15;;
20890;SDS011;10605;52.968;8.844;2022-10-26T22:58:36;26.83;;;18.90;;
20890;SDS011;10605;52.968;8.844;2022-10-26T23:03:31;24.92;;;17.80;;
20890;SDS011;10605;52.968;8.844;2022-10-26T23:05:58;27.88;;;17.70;;
20890;SDS011;10605;52.968;8.844;2022-10-26T23:08:24;29.77;;;16.58;;
20890;SDS011;10605;52.968;8.844;2022-10-26T23:10:50;24.20;;;17.08;;
20890;SDS011;10605;52.968;8.844;2022-10-26T23:13:16;24.15;;;17.25;;
20890;SDS011;10605;52.968;8.844;2022-10-26T23:15:41;28.67;;;18.38;;
20890;SDS011;10605;52.968;8.844;2022-10-26T23:18:07;23.25;;;17.65;;
20890;SDS011;10605;52.968;8.844;2022-10-26T23:20:33;27.50;;;17.92;;
20890;SDS011;10605;52.968;8.844;2022-10-26T23:22:59;25.15;;;18.13;;
20890;SDS011;10605;52.968;8.844;2022-10-26T23:25:25;30.35;;;17.45;;
20890;SDS011;10605;52.968;8.844;2022-10-26T23:27:51;27.90;;;17.77;;
20890;SDS011;10605;52.968;8.844;2022-10-26T23:30:17;29.00;;;17.40;;
20890;SDS011;10605;52.968;8.844;2022-10-26T23:32:43;28.33;;;17.40;;
20890;SDS011;10605;52.968;8.844;2022-10-26T23:35:09;25.77;;;15.30;;
20890;SDS011;10605;52.968;8.844;2022-10-26T23:37:35;29.30;;;17.50;;
20890;SDS011;10605;52.968;8.844;2022-10-26T23:40:00;31.73;;;17.63;;
20890;SDS011;10605;52.968;8.844;2022-10-26T23:42:26;24.45;;;16.00;;
20890;SDS011;10605;52.968;8.844;2022-10-26T23:44:51;28.10;;;17.02;;
20890;SDS011;10605;52.968;8.844;2022-10-26T23:47:17;19.30;;;15.80;;
20890;SDS011;10605;52.968;8.844;2022-10-26T23:49:42;18.67;;;15.40;;
20890;SDS011;10605;52.968;8.844;2022-10-26T23:52:08;22.02;;;15.00;;
20890;SDS011;10605;52.968;8.844;2022-10-26T23:54:34;24.77;;;15.52;;
20890;SDS011;10605;52.968;8.844;2022-10-26T23:56:59;21.45;;;14.75;;
20890;SDS011;10605;52.968;8.844;2022-10-26T23:59:25;24.20;;;15.23;;
